Latest Weather Observations for Point Wilson

IDV60901

Issued at 2:21 am EST Friday 29 May 2015 (issued every 10 minutes, with the page automatically refreshed every 10 minutes)

About weather observations | Map of Melbourne area stations | Latest observations for Melbourne area | Other Formats
Station Details ID: 087166 Name: POINT WILSON Lat: -38.10 Lon: 144.54 Height: 18.0 m
Data from the previous 72 hours. | See also: Recent months at Point Wilson
Date/Time
EST
Tmp

°C
App
Tmp
°C
Dew
Point
°C
Rel
Hum
%
Delta-T

°C
Wind Press
QNH
hPa
Press
MSL
hPa
Rain
since
9 am
mm
Dir
 
Spd
km/h
Gust
km/h
Spd
kts
Gust
kts
29/02:00am - - - - - WNW 28 35 15 19 - - -
29/01:30am - - - - - NW 24 32 13 17 - - -
29/01:00am - - - - - WNW 24 32 13 17 - - -
29/12:30am - - - - - WNW 26 32 14 17 - - -
29/12:00am - - - - - W 28 33 15 18 - - -
 
Date/Time
EST
Tmp

°C
App
Tmp
°C
Dew
Point
°C
Rel
Hum
%
Delta-T

°C
Wind Press
QNH
hPa
Press
MSL
hPa
Rain
since
9 am
mm
Dir
 
Spd
km/h
Gust
km/h
Spd
kts
Gust
kts
28/11:30pm - - - - - W 33 41 18 22 - - -
28/11:00pm - - - - - WNW 32 39 17 21 - - -
28/10:30pm - - - - - WNW 28 35 15 19 - - -
28/10:00pm - - - - - W 28 33 15 18 - - -
28/09:30pm - - - - - NW 26 33 14 18 - - -
28/09:00pm - - - - - W 22 30 12 16 - - -
28/08:30pm - - - - - W 28 35 15 19 - - -
28/08:00pm - - - - - WSW 32 41 17 22 - - -
28/07:30pm - - - - - WSW 26 39 14 21 - - -
28/07:00pm - - - - - WSW 30 37 16 20 - - -
28/06:34pm - - - - - WSW 32 50 17 27 - - -
28/06:30pm - - - - - W 35 50 19 27 - - -
28/06:25pm - - - - - W 43 50 23 27 - - -
28/06:00pm - - - - - WNW 19 24 10 13 - - -
28/05:30pm - - - - - NW 28 33 15 18 - - -
28/05:00pm - - - - - NW 28 39 15 21 - - -
28/04:30pm - - - - - NNW 46 56 25 30 - - -
28/04:00pm - - - - - NNW 37 48 20 26 - - -
28/03:45pm - - - - - NNW 37 57 20 31 - - -
28/03:30pm - - - - - NNW 37 52 20 28 - - -
28/03:00pm - - - - - NNW 41 50 22 27 - - -
28/02:50pm - - - - - NW 43 61 23 33 - - -
28/02:30pm - - - - - NNW 48 57 26 31 - - -
28/02:00pm - - - - - NNW 46 59 25 32 - - -
28/01:32pm - - - - - NNW 46 65 25 35 - - -
28/01:30pm - - - - - NNW 48 65 26 35 - - -
28/01:00pm - - - - - NNW 41 50 22 27 - - -
28/12:30pm - - - - - NNW 43 48 23 26 - - -
28/12:00pm - - - - - N 41 50 22 27 - - -
28/11:30am - - - - - N 43 50 23 27 - - -
28/11:00am - - - - - N 41 52 22 28 - - -
28/10:30am - - - - - N 43 50 23 27 - - -
28/10:00am - - - - - N 39 46 21 25 - - -
28/09:30am - - - - - N 35 44 19 24 - - -
28/09:00am - - - - - N 26 32 14 17 - - -
28/08:30am - - - - - N 28 33 15 18 - - -
28/08:00am - - - - - N 28 33 15 18 - - -
28/07:30am - - - - - N 26 30 14 16 - - -
28/07:00am - - - - - NNE 24 26 13 14 - - -
28/06:30am - - - - - NNE 32 37 17 20 - - -
28/06:00am - - - - - N 24 28 13 15 - - -
28/05:30am - - - - - NNE 26 30 14 16 - - -
28/05:00am - - - - - N 28 32 15 17 - - -
28/04:30am - - - - - NNE 28 32 15 17 - - -
28/04:00am - - - - - NNE 26 30 14 16 - - -
28/03:30am - - - - - N 24 28 13 15 - - -
28/03:00am - - - - - N 26 28 14 15 - - -
28/02:30am - - - - - N 28 32 15 17 - - -
28/02:00am - - - - - N 30 33 16 18 - - -
28/01:30am - - - - - N 32 37 17 20 - - -
28/01:00am - - - - - N 33 39 18 21 - - -
28/12:30am - - - - - N 32 35 17 19 - - -
28/12:00am - - - - - N 32 37 17 20 - - -
 
Date/Time
EST
Tmp

°C
App
Tmp
°C
Dew
Point
°C
Rel
Hum
%
Delta-T

°C
Wind Press
QNH
hPa
Press
MSL
hPa
Rain
since
9 am
mm
Dir
 
Spd
km/h
Gust
km/h
Spd
kts
Gust
kts
27/11:30pm - - - - - NNE 26 28 14 15 - - -
27/11:00pm - - - - - NNE 26 30 14 16 - - -
27/10:30pm - - - - - NNE 28 32 15 17 - - -
27/10:00pm - - - - - N 22 26 12 14 - - -
27/09:30pm - - - - - N 17 20 9 11 - - -
27/09:00pm - - - - - N 22 24 12 13 - - -
27/08:30pm - - - - - N 20 24 11 13 - - -
27/08:00pm - - - - - NNE 24 26 13 14 - - -
27/07:30pm - - - - - N 20 24 11 13 - - -
27/07:00pm - - - - - N 26 28 14 15 - - -
27/06:30pm - - - - - N 24 28 13 15 - - -
27/06:00pm - - - - - N 17 19 9 10 - - -
27/05:30pm - - - - - NNW 20 28 11 15 - - -
27/05:00pm - - - - - NNW 22 26 12 14 - - -
27/04:30pm - - - - - NNW 26 30 14 16 - - -
27/04:00pm - - - - - NNW 28 33 15 18 - - -
27/03:30pm - - - - - NNW 32 37 17 20 - - -
27/03:00pm - - - - - NW 33 41 18 22 - - -
27/02:30pm - - - - - NNW 33 41 18 22 - - -
27/02:00pm - - - - - NNW 32 39 17 21 - - -
27/01:30pm - - - - - NE 26 33 14 18 - - -
27/01:00pm - - - - - N 15 28 8 15 - - -
27/12:30pm - - - - - NE 26 28 14 15 - - -
27/12:00pm - - - - - NNE 26 30 14 16 - - -
27/11:30am - - - - - NNE 20 24 11 13 - - -
27/11:00am - - - - - NNE 20 24 11 13 - - -
27/10:30am - - - - - NNE 24 28 13 15 - - -
27/10:00am - - - - - NNE 22 26 12 14 - - -
27/09:30am - - - - - N 32 35 17 19 - - -
27/09:00am - - - - - N 33 37 18 20 - - -
27/08:30am - - - - - N 28 33 15 18 - - -
27/08:00am - - - - - N 26 30 14 16 - - -
27/07:30am - - - - - N 22 26 12 14 - - -
27/07:00am - - - - - NNE 28 33 15 18 - - -
27/06:30am - - - - - NNE 28 32 15 17 - - -
27/06:00am - - - - - NE 28 32 15 17 - - -
27/05:30am - - - - - NE 26 28 14 15 - - -
27/05:00am - - - - - NE 19 24 10 13 - - -
27/04:30am - - - - - NE 20 22 11 12 - - -
27/04:00am - - - - - NNE 22 24 12 13 - - -
27/03:30am - - - - - NNE 24 28 13 15 - - -
27/03:00am - - - - - NNE 24 28 13 15 - - -
27/02:30am - - - - - NE 20 24 11 13 - - -
27/02:00am - - - - - NE 20 22 11 12 - - -
27/01:30am - - - - - NE 19 22 10 12 - - -
27/01:00am - - - - - NE 20 24 11 13 - - -
27/12:30am - - - - - NNE 22 24 12 13 - - -
27/12:00am - - - - - NE 24 28 13 15 - - -
 
Date/Time
EST
Tmp

°C
App
Tmp
°C
Dew
Point
°C
Rel
Hum
%
Delta-T

°C
Wind Press
QNH
hPa
Press
MSL
hPa
Rain
since
9 am
mm
Dir
 
Spd
km/h
Gust
km/h
Spd
kts
Gust
kts
26/11:30pm - - - - - NE 24 28 13 15 - - -
26/11:00pm - - - - - NE 26 28 14 15 - - -
26/10:30pm - - - - - NE 24 28 13 15 - - -
26/10:00pm - - - - - NNE 24 28 13 15 - - -
26/09:30pm - - - - - NNE 22 24 12 13 - - -
26/09:00pm - - - - - NNE 20 24 11 13 - - -
26/08:30pm - - - - - NNE 22 26 12 14 - - -
26/08:00pm - - - - - NNE 24 26 13 14 - - -
26/07:30pm - - - - - NE 19 20 10 11 - - -
26/07:00pm - - - - - NE 20 20 11 11 - - -
26/06:30pm - - - - - ENE 15 17 8 9 - - -
26/06:00pm - - - - - ENE 17 19 9 10 - - -
26/05:30pm - - - - - E 15 19 8 10 - - -
26/05:00pm - - - - - E 17 19 9 10 - - -
26/04:30pm - - - - - E 13 15 7 8 - - -
26/04:00pm - - - - - E 13 13 7 7 - - -
26/03:30pm - - - - - E 11 11 6 6 - - -
26/03:00pm - - - - - E 13 13 7 7 - - -
26/02:30pm - - - - - E 9 11 5 6 - - -
26/02:00pm - - - - - ENE 11 13 6 7 - - -
26/01:30pm - - - - - E 9 11 5 6 - - -
26/01:00pm - - - - - E 9 11 5 6 - - -
26/12:30pm - - - - - NE 13 15 7 8 - - -
26/12:00pm - - - - - E 7 9 4 5 - - -
26/11:30am - - - - - E 7 11 4 6 - - -
26/11:00am - - - - - NE 6 7 3 4 - - -
26/10:30am - - - - - N 6 7 3 4 - - -
26/10:00am - - - - - NW 7 7 4 4 - - -
26/09:30am - - - - - NNW 7 9 4 5 - - -
26/09:00am - - - - - CALM 0 0 0 0 - - -
26/08:30am - - - - - NW 7 9 4 5 - - -
26/08:00am - - - - - NNW 9 9 5 5 - - -
26/07:30am - - - - - N 9 11 5 6 - - -
26/07:00am - - - - - N 7 9 4 5 - - -
26/06:30am - - - - - NNW 9 13 5 7 - - -
26/06:00am - - - - - W 6 7 3 4 - - -
26/05:30am - - - - - NW 7 9 4 5 - - -
26/05:00am - - - - - NW 7 9 4 5 - - -
26/04:30am - - - - - N 9 9 5 5 - - -
26/04:00am - - - - - N 9 11 5 6 - - -
26/03:30am - - - - - N 9 9 5 5 - - -
26/03:00am - - - - - NNW 7 9 4 5 - - -
26/02:30am - - - - - N 9 11 5 6 - - -

Latest Capital City Observations: Canberra | Sydney | Melbourne | Brisbane | Adelaide | Perth | Hobart | Darwin

Other Formats:

Comma delimited format used in spreadsheet applications
http://www.bom.gov.au/fwo/IDV60901/IDV60901.94847.axf

JavaScript Object Notation format (JSON) in row-major order
http://www.bom.gov.au/fwo/IDV60901/IDV60901.94847.json